createdAt,value
2019-02-16T00:01:02.978Z,3.90
2019-02-16T00:03:32.787Z,3.93
2019-02-16T00:06:02.897Z,4.30
2019-02-16T00:08:32.861Z,3.63
2019-02-16T00:11:03.118Z,3.10
2019-02-16T00:13:32.921Z,3.93
2019-02-16T00:16:02.677Z,5.20
2019-02-16T00:18:51.406Z,3.23
2019-02-16T00:21:20.943Z,3.93
2019-02-16T00:23:50.599Z,2.90
2019-02-16T00:26:20.814Z,3.27
2019-02-16T00:28:51.096Z,3.00
2019-02-16T00:31:20.575Z,3.40
2019-02-16T00:33:50.683Z,2.87
2019-02-16T00:36:20.066Z,3.20
2019-02-16T00:38:50.094Z,2.90
2019-02-16T00:41:19.692Z,3.07
2019-02-16T00:43:49.312Z,4.10
2019-02-16T00:46:19.024Z,5.90
2019-02-16T00:48:48.736Z,3.00
2019-02-16T00:51:19.212Z,2.90
2019-02-16T00:53:48.983Z,6.23
2019-02-16T00:56:19.028Z,2.90
2019-02-16T00:58:49.220Z,2.53
2019-02-16T01:01:18.445Z,2.90
2019-02-16T01:03:48.089Z,2.67
2019-02-16T01:06:17.386Z,2.90
2019-02-16T01:08:46.977Z,2.90
2019-02-16T01:11:16.763Z,5.20
2019-02-16T01:13:46.563Z,2.83
2019-02-16T01:16:35.656Z,2.53
2019-02-16T01:19:05.501Z,3.30
2019-02-16T01:21:34.686Z,2.77
2019-02-16T01:24:04.350Z,3.00
2019-02-16T01:26:33.938Z,2.40
2019-02-16T01:29:03.153Z,2.90
2019-02-16T01:31:32.596Z,3.00
2019-02-16T01:34:01.861Z,3.27
2019-02-16T01:36:31.919Z,3.13
2019-02-16T01:39:02.679Z,3.67
2019-02-16T01:41:31.915Z,3.00
2019-02-16T01:44:01.744Z,2.63
2019-02-16T01:46:31.252Z,3.40
2019-02-16T01:49:00.945Z,2.63
2019-02-16T01:51:32.151Z,3.37
2019-02-16T01:54:02.540Z,3.07
2019-02-16T01:56:32.547Z,3.03
2019-02-16T01:59:02.197Z,3.20
2019-02-16T02:01:31.562Z,4.13
2019-02-16T02:04:01.381Z,3.23
2019-02-16T02:06:30.996Z,3.13
2019-02-16T02:09:00.381Z,3.80
2019-02-16T02:11:30.156Z,3.53
2019-02-16T02:14:18.723Z,4.00
2019-02-16T02:16:48.396Z,3.60
2019-02-16T02:19:18.058Z,3.03
2019-02-16T02:21:47.689Z,3.73
2019-02-16T02:24:16.939Z,4.53
2019-02-16T02:26:46.633Z,4.63
2019-02-16T02:29:16.329Z,3.60
2019-02-16T02:31:45.925Z,3.67
2019-02-16T02:34:15.627Z,4.10
2019-02-16T02:36:45.397Z,4.47
2019-02-16T02:39:15.081Z,3.70
2019-02-16T02:41:44.506Z,3.60
2019-02-16T02:44:14.954Z,3.70
2019-02-16T02:46:44.863Z,4.63
2019-02-16T02:49:33.330Z,3.93
2019-02-16T02:52:03.287Z,5.07
2019-02-16T02:54:33.389Z,3.70
2019-02-16T02:57:02.694Z,4.63
2019-02-16T02:59:32.237Z,3.93
2019-02-16T03:02:02.094Z,4.27
2019-02-16T03:04:31.275Z,3.20
2019-02-16T03:07:01.245Z,4.57
2019-02-16T03:09:30.890Z,3.97
2019-02-16T03:12:00.550Z,3.50
2019-02-16T03:14:30.179Z,4.83
2019-02-16T03:16:59.472Z,3.57
2019-02-16T03:19:29.070Z,3.90
2019-02-16T03:22:02.933Z,3.50
2019-02-16T03:24:30.898Z,3.60
2019-02-16T03:27:14.344Z,3.23
2019-02-16T03:30:20.915Z,3.10
2019-02-16T03:33:33.920Z,3.90
2019-02-16T03:36:40.190Z,3.33
2019-02-16T03:39:18.694Z,3.60
2019-02-16T03:41:49.062Z,3.10
2019-02-16T03:44:19.093Z,3.70
2019-02-16T03:47:07.532Z,3.57
2019-02-16T03:49:37.167Z,5.03
2019-02-16T03:52:13.761Z,3.30
2019-02-16T03:54:38.242Z,2.77
2019-02-16T03:57:07.965Z,2.73
2019-02-16T03:59:37.154Z,3.20
2019-02-16T04:02:06.821Z,3.00
2019-02-16T04:04:36.496Z,3.37
2019-02-16T04:07:05.805Z,3.67
2019-02-16T04:09:35.357Z,3.00
2019-02-16T04:12:04.993Z,3.67
2019-02-16T04:14:35.013Z,3.10
2019-02-16T04:17:04.710Z,3.07
2019-02-16T04:19:34.923Z,4.93
2019-02-16T04:22:05.014Z,3.20
2019-02-16T04:24:34.287Z,2.70
2019-02-16T04:27:04.003Z,3.07
2019-02-16T04:29:52.721Z,3.80
2019-02-16T04:32:22.321Z,3.67
2019-02-16T04:34:52.146Z,3.60
2019-02-16T04:37:21.719Z,4.40
2019-02-16T04:39:51.326Z,3.60
2019-02-16T04:42:20.956Z,3.83
2019-02-16T04:44:51.035Z,3.33
2019-02-16T04:47:20.974Z,3.97
2019-02-16T04:50:09.533Z,4.10
2019-02-16T04:52:39.104Z,3.50
2019-02-16T04:55:09.150Z,2.83
2019-02-16T04:57:39.542Z,3.30
2019-02-16T05:00:09.576Z,5.20
2019-02-16T05:02:39.181Z,3.27
2019-02-16T05:05:08.730Z,3.20
2019-02-16T05:07:37.986Z,2.77
2019-02-16T05:10:07.437Z,3.73
2019-02-16T05:12:37.530Z,5.17
2019-02-16T05:15:07.825Z,2.97
2019-02-16T05:17:37.762Z,2.90
2019-02-16T05:20:07.427Z,3.53
2019-02-16T05:22:44.318Z,3.07
2019-02-16T05:25:08.033Z,3.40
2019-02-16T05:27:38.335Z,3.60
2019-02-16T05:30:07.971Z,3.37
2019-02-16T05:32:37.994Z,3.00
2019-02-16T05:35:07.230Z,3.23
2019-02-16T05:37:36.477Z,3.57
2019-02-16T05:40:06.761Z,3.90
2019-02-16T05:42:37.029Z,3.10
2019-02-16T05:45:06.482Z,2.40
2019-02-16T05:47:36.468Z,3.00
2019-02-16T05:50:05.701Z,3.60
2019-02-16T05:52:35.280Z,3.03
2019-02-16T05:55:05.348Z,4.00
2019-02-16T05:57:36.028Z,3.50
2019-02-16T06:00:06.002Z,3.03
2019-02-16T06:02:36.021Z,3.30
2019-02-16T06:05:05.471Z,3.43
2019-02-16T06:07:35.420Z,2.70
2019-02-16T06:10:05.541Z,3.60
2019-02-16T06:12:34.944Z,3.83
2019-02-16T06:15:04.596Z,2.77
2019-02-16T06:17:34.030Z,3.30
2019-02-16T06:20:03.627Z,3.40
2019-02-16T06:22:33.378Z,3.93
2019-02-16T06:25:03.329Z,3.33
2019-02-16T06:27:32.612Z,3.07
2019-02-16T06:30:02.339Z,3.83
2019-02-16T06:32:32.038Z,3.17
2019-02-16T06:35:15.973Z,4.33
2019-02-16T06:37:45.503Z,4.07
2019-02-16T06:40:14.871Z,3.70
2019-02-16T06:42:44.504Z,2.77
2019-02-16T06:45:14.215Z,3.23
2019-02-16T06:47:44.154Z,3.27
2019-02-16T06:50:13.811Z,3.43
2019-02-16T06:52:43.462Z,3.43
2019-02-16T06:55:13.513Z,3.70
2019-02-16T06:57:46.443Z,2.67
2019-02-16T07:00:18.130Z,3.90
2019-02-16T07:02:47.674Z,3.50
2019-02-16T07:05:17.350Z,2.53
2019-02-16T07:08:06.102Z,3.67
2019-02-16T07:10:35.474Z,3.47
2019-02-16T07:13:05.142Z,3.57
2019-02-16T07:15:35.214Z,4.80
2019-02-16T07:18:27.310Z,3.50
2019-02-16T07:20:57.240Z,3.50
2019-02-16T07:23:27.704Z,3.63
2019-02-16T07:25:57.739Z,3.83
2019-02-16T07:28:26.976Z,3.37
2019-02-16T07:30:56.232Z,4.53
2019-02-16T07:33:25.890Z,4.73
2019-02-16T07:35:55.718Z,5.03
2019-02-16T07:38:25.375Z,3.53
2019-02-16T07:40:55.357Z,3.60
2019-02-16T07:43:56.094Z,3.70
2019-02-16T07:46:38.378Z,3.20
2019-02-16T07:49:24.621Z,3.53
2019-02-16T07:52:22.277Z,3.90
2019-02-16T07:55:14.124Z,3.50
2019-02-16T07:58:03.109Z,4.80
2019-02-16T08:00:38.577Z,4.20
2019-02-16T08:03:26.923Z,4.77
2019-02-16T08:06:15.843Z,4.10
2019-02-16T08:09:04.006Z,3.97
2019-02-16T08:11:40.383Z,3.37
2019-02-16T08:14:34.759Z,4.43
2019-02-16T08:17:22.949Z,4.67
2019-02-16T08:20:03.835Z,6.73
2019-02-16T08:23:26.525Z,6.20
2019-02-16T08:26:13.390Z,4.20
2019-02-16T08:28:53.931Z,4.20
2019-02-16T08:31:31.860Z,4.10
2019-02-16T08:34:23.390Z,4.67
2019-02-16T08:37:01.881Z,4.10
2019-02-16T08:39:49.696Z,6.87
2019-02-16T08:42:30.486Z,3.37
2019-02-16T08:45:09.915Z,3.73
2019-02-16T08:47:57.000Z,5.10
2019-02-16T08:50:44.171Z,3.73
2019-02-16T08:53:49.911Z,5.40
2019-02-16T08:56:38.975Z,7.87
2019-02-16T08:59:36.918Z,4.63
2019-02-16T09:02:24.708Z,5.73
2019-02-16T09:05:09.506Z,5.77
2019-02-16T09:08:02.852Z,5.07
2019-02-16T09:10:50.383Z,4.40
2019-02-16T09:13:28.718Z,6.07
2019-02-16T09:16:03.804Z,5.77
2019-02-16T09:18:52.734Z,6.10
2019-02-16T09:21:34.455Z,7.93
2019-02-16T09:24:22.602Z,6.40
2019-02-16T09:27:10.701Z,5.50
2019-02-16T09:30:05.294Z,6.07
2019-02-16T09:33:09.391Z,5.40
2019-02-16T09:36:06.521Z,5.60
2019-02-16T09:39:04.188Z,6.10
2019-02-16T09:41:52.791Z,6.10
2019-02-16T09:44:44.011Z,6.70
2019-02-16T09:47:47.291Z,6.43
2019-02-16T09:50:34.659Z,5.70
2019-02-16T09:53:09.495Z,6.20
2019-02-16T09:56:10.659Z,6.43
2019-02-16T09:58:52.241Z,6.23
2019-02-16T10:01:46.458Z,7.10
2019-02-16T10:04:28.203Z,7.63
2019-02-16T10:07:22.173Z,6.67
2019-02-16T10:09:57.085Z,7.13
2019-02-16T10:12:47.978Z,6.80
2019-02-16T10:15:39.206Z,9.70
2019-02-16T10:18:33.610Z,7.03
2019-02-16T10:21:22.131Z,8.33
2019-02-16T10:24:18.203Z,7.73
2019-02-16T10:27:31.926Z,9.47
2019-02-16T10:30:39.340Z,13.33
2019-02-16T10:33:34.194Z,11.33
2019-02-16T10:36:09.972Z,11.27
2019-02-16T10:39:13.899Z,10.50
2019-02-16T10:42:12.126Z,9.73
2019-02-16T10:45:00.494Z,11.37
2019-02-16T10:47:46.419Z,10.63
2019-02-16T10:50:33.562Z,10.67
2019-02-16T10:53:28.320Z,10.20
2019-02-16T10:56:16.855Z,9.03
2019-02-16T10:59:03.694Z,9.70
2019-02-16T11:01:59.679Z,12.23
2019-02-16T11:04:48.796Z,9.73
2019-02-16T11:07:43.391Z,10.47
2019-02-16T11:10:31.984Z,12.00
2019-02-16T11:13:13.783Z,10.17
2019-02-16T11:16:01.266Z,12.13
2019-02-16T11:18:52.817Z,11.37
2019-02-16T11:21:44.563Z,14.63
2019-02-16T11:24:36.425Z,10.70
2019-02-16T11:27:23.316Z,13.83
2019-02-16T11:30:21.150Z,14.03
2019-02-16T11:32:58.811Z,11.57
2019-02-16T11:35:56.569Z,11.43
2019-02-16T11:38:45.711Z,11.83
2019-02-16T11:41:42.967Z,10.43
2019-02-16T11:44:43.557Z,12.23
2019-02-16T11:47:30.298Z,12.30
2019-02-16T11:50:17.908Z,11.30
2019-02-16T11:53:05.131Z,11.23
2019-02-16T11:55:59.535Z,11.80
2019-02-16T11:59:02.658Z,11.83
2019-02-16T12:01:44.098Z,10.73
2019-02-16T12:04:21.416Z,11.10
2019-02-16T12:07:06.614Z,12.03
2019-02-16T12:09:58.478Z,10.80
2019-02-16T12:12:39.251Z,10.90
2019-02-16T12:15:36.640Z,10.97
2019-02-16T12:18:25.284Z,11.00
2019-02-16T12:21:12.262Z,10.20
2019-02-16T12:24:01.174Z,10.43
2019-02-16T12:26:48.663Z,11.37
2019-02-16T12:29:37.469Z,11.67
2019-02-16T12:32:34.962Z,11.10
2019-02-16T12:35:20.748Z,11.37
2019-02-16T12:37:58.033Z,12.93
2019-02-16T12:40:45.221Z,11.00
2019-02-16T12:43:24.706Z,12.00
2019-02-16T12:46:13.791Z,13.80
2019-02-16T12:48:52.552Z,10.60
2019-02-16T12:51:41.122Z,12.23
2019-02-16T12:54:20.223Z,13.13
2019-02-16T12:56:57.052Z,11.70
2019-02-16T12:59:51.026Z,16.60
2019-02-16T13:02:42.154Z,14.67
2019-02-16T13:05:21.210Z,12.30
2019-02-16T13:08:13.397Z,12.90
2019-02-16T13:11:20.389Z,16.60
2019-02-16T13:14:07.688Z,13.30
2019-02-16T13:16:55.327Z,11.60
2019-02-16T13:19:56.162Z,12.53
2019-02-16T13:22:47.779Z,14.60
2019-02-16T13:25:35.725Z,13.40
2019-02-16T13:28:19.137Z,13.27
2019-02-16T13:31:01.300Z,13.97
2019-02-16T13:33:43.059Z,12.73
2019-02-16T13:36:37.836Z,12.13
2019-02-16T13:39:38.313Z,12.37
2019-02-16T13:42:16.887Z,12.40
2019-02-16T13:44:54.489Z,13.40
2019-02-16T13:47:38.050Z,14.50
2019-02-16T13:50:29.454Z,11.53
2019-02-16T13:53:23.694Z,12.63
2019-02-16T13:56:30.633Z,13.70
2019-02-16T13:59:12.545Z,15.60
2019-02-16T14:02:01.023Z,13.40
2019-02-16T14:04:55.417Z,12.60
2019-02-16T14:07:49.476Z,13.80
2019-02-16T14:10:27.880Z,13.77
2019-02-16T14:13:14.878Z,14.00
2019-02-16T14:16:02.265Z,14.00
2019-02-16T14:18:31.513Z,12.97
2019-02-16T14:21:01.175Z,14.10
2019-02-16T14:23:30.835Z,15.20
2019-02-16T14:26:00.546Z,13.53
2019-02-16T14:28:30.910Z,14.27
2019-02-16T14:31:00.542Z,12.53
2019-02-16T14:33:30.306Z,14.50
2019-02-16T14:36:00.573Z,13.30
2019-02-16T14:38:54.848Z,15.73
2019-02-16T14:41:24.445Z,16.00
2019-02-16T14:43:53.686Z,15.27
2019-02-16T14:46:23.702Z,13.57
2019-02-16T14:48:53.372Z,14.20
2019-02-16T14:51:23.004Z,14.50
2019-02-16T14:53:52.536Z,14.27
2019-02-16T14:56:21.933Z,13.83
2019-02-16T14:58:51.494Z,15.00
2019-02-16T15:01:20.734Z,14.10
2019-02-16T15:03:49.993Z,16.90
2019-02-16T15:06:19.737Z,16.20
2019-02-16T15:08:50.472Z,14.63
2019-02-16T15:11:19.739Z,15.43
2019-02-16T15:13:49.367Z,17.40
2019-02-16T15:16:18.582Z,14.37
2019-02-16T15:18:48.319Z,14.60
2019-02-16T15:21:18.303Z,14.27
2019-02-16T15:23:47.866Z,12.73
2019-02-16T15:26:17.467Z,13.20
2019-02-16T15:28:47.490Z,24.60
2019-02-16T15:31:16.698Z,16.20
2019-02-16T15:33:46.367Z,17.20
2019-02-16T15:36:23.718Z,14.03
2019-02-16T15:38:47.552Z,19.30
2019-02-16T15:41:17.203Z,14.47
2019-02-16T15:43:47.221Z,17.23
2019-02-16T15:46:17.362Z,14.93
2019-02-16T15:48:46.711Z,15.07
2019-02-16T15:51:15.971Z,13.27
2019-02-16T15:53:46.670Z,15.00
2019-02-16T15:56:15.907Z,13.30
2019-02-16T15:58:45.684Z,14.70
2019-02-16T16:01:14.998Z,14.13
2019-02-16T16:03:44.657Z,15.27
2019-02-16T16:06:14.285Z,18.00
2019-02-16T16:08:51.151Z,15.17
2019-02-16T16:11:57.794Z,13.43
2019-02-16T16:14:51.567Z,14.53
2019-02-16T16:17:43.841Z,15.57
2019-02-16T16:20:30.755Z,14.30
2019-02-16T16:23:17.922Z,14.17
2019-02-16T16:25:56.880Z,14.00
2019-02-16T16:28:48.455Z,17.23
2019-02-16T16:31:26.274Z,15.87
2019-02-16T16:34:14.305Z,18.53
2019-02-16T16:37:09.818Z,16.67
2019-02-16T16:39:52.232Z,13.07
2019-02-16T16:42:58.868Z,14.83
2019-02-16T16:45:47.119Z,12.70
2019-02-16T16:48:38.165Z,17.43
2019-02-16T16:51:25.385Z,15.90
2019-02-16T16:54:01.132Z,13.40
2019-02-16T16:56:39.941Z,16.07
2019-02-16T16:59:28.265Z,15.83
2019-02-16T17:02:10.965Z,13.93
2019-02-16T17:05:02.336Z,14.17
2019-02-16T17:07:45.822Z,16.20
2019-02-16T17:10:22.478Z,18.50
2019-02-16T17:13:10.141Z,13.67
2019-02-16T17:15:54.300Z,13.70
2019-02-16T17:18:49.015Z,14.83
2019-02-16T17:24:20.868Z,13.53
2019-02-16T17:27:08.107Z,15.27
2019-02-16T17:29:59.049Z,14.37
2019-02-16T17:32:46.348Z,13.47
2019-02-16T17:35:26.905Z,16.13
2019-02-16T17:38:21.918Z,12.20
2019-02-16T17:41:13.137Z,13.37
2019-02-16T17:43:55.666Z,12.27
2019-02-16T17:46:37.908Z,13.13
2019-02-16T17:49:15.190Z,12.93
2019-02-16T17:51:59.218Z,11.77
2019-02-16T17:55:06.445Z,13.60
2019-02-16T17:57:40.827Z,14.93
2019-02-16T18:00:17.463Z,14.27
2019-02-16T18:02:58.090Z,13.40
2019-02-16T18:05:45.550Z,14.80
2019-02-16T18:08:46.858Z,13.63
2019-02-16T18:11:28.161Z,12.33
2019-02-16T18:14:13.228Z,13.90
2019-02-16T18:17:20.085Z,11.93
2019-02-16T18:19:54.517Z,12.50
2019-02-16T18:22:45.082Z,9.77
2019-02-16T18:25:26.877Z,13.80
2019-02-16T18:28:23.644Z,15.20
2019-02-16T18:31:11.576Z,13.20
2019-02-16T18:33:58.716Z,12.47
2019-02-16T18:36:38.601Z,15.80
2019-02-16T18:39:21.268Z,16.27
2019-02-16T18:42:10.205Z,15.40
2019-02-16T18:44:59.926Z,15.67
2019-02-16T18:47:43.517Z,20.10
2019-02-16T18:50:36.562Z,20.07
2019-02-16T18:53:24.715Z,15.40
2019-02-16T18:56:01.950Z,19.77
2019-02-16T18:58:57.032Z,18.10
2019-02-16T19:01:33.503Z,18.10
2019-02-16T19:04:37.367Z,17.70
2019-02-16T19:07:12.141Z,16.50
2019-02-16T19:10:06.537Z,17.73
2019-02-16T19:12:54.727Z,23.43
2019-02-16T19:15:48.794Z,17.13
2019-02-16T19:18:49.786Z,18.47
2019-02-16T19:21:36.565Z,19.43
2019-02-16T19:24:16.862Z,21.40
2019-02-16T19:26:59.039Z,23.47
2019-02-16T19:29:46.324Z,20.47
2019-02-16T19:32:41.517Z,21.53
2019-02-16T19:35:22.956Z,20.33
2019-02-16T19:38:25.325Z,20.83
2019-02-16T19:41:17.409Z,20.10
2019-02-16T19:44:05.472Z,19.87
2019-02-16T19:46:43.183Z,17.70
2019-02-16T19:49:31.520Z,20.60
2019-02-16T19:52:20.223Z,26.07
2019-02-16T19:55:15.677Z,19.33
2019-02-16T19:58:19.723Z,19.87
2019-02-16T20:00:59.768Z,25.63
2019-02-16T20:03:46.649Z,26.10
2019-02-16T20:06:53.559Z,22.67
2019-02-16T20:09:38.649Z,21.43
2019-02-16T20:12:36.222Z,21.20
2019-02-16T20:15:17.593Z,19.47
2019-02-16T20:18:15.511Z,22.07
2019-02-16T20:21:04.508Z,19.07
2019-02-16T20:23:53.475Z,20.97
2019-02-16T20:26:41.091Z,21.40
2019-02-16T20:29:27.918Z,21.17
2019-02-16T20:32:19.384Z,19.03
2019-02-16T20:35:07.316Z,19.93
2019-02-16T20:37:55.654Z,20.47
2019-02-16T20:40:44.005Z,20.77
2019-02-16T20:43:44.753Z,21.97
2019-02-16T20:46:33.040Z,25.40
2019-02-16T20:49:21.666Z,25.03
2019-02-16T20:52:10.373Z,22.33
2019-02-16T20:54:50.390Z,28.50
2019-02-16T20:57:27.591Z,22.80
2019-02-16T21:00:18.958Z,23.70
2019-02-16T21:03:07.770Z,17.87
2019-02-16T21:05:59.032Z,21.13
2019-02-16T21:08:48.133Z,18.37
2019-02-16T21:11:31.961Z,16.80
2019-02-16T21:14:20.878Z,17.37
2019-02-16T21:17:10.835Z,19.67
2019-02-16T21:20:02.555Z,19.67
2019-02-16T21:22:49.834Z,17.80
2019-02-16T21:25:46.890Z,19.20
2019-02-16T21:28:28.539Z,15.83
2019-02-16T21:31:36.239Z,15.60
2019-02-16T21:34:15.134Z,18.50
2019-02-16T21:37:21.478Z,15.17
2019-02-16T21:39:56.123Z,21.30
2019-02-16T21:42:31.662Z,17.93
2019-02-16T21:45:27.099Z,16.73
2019-02-16T21:48:21.192Z,17.30
2019-02-16T21:51:15.893Z,16.37
2019-02-16T21:53:52.813Z,16.13
2019-02-16T21:56:40.851Z,16.90
2019-02-16T21:59:30.046Z,14.40
2019-02-16T22:02:31.127Z,19.23
2019-02-16T22:05:17.933Z,17.90
2019-02-16T22:08:06.230Z,14.70
2019-02-16T22:10:50.127Z,15.00
2019-02-16T22:13:20.279Z,17.93
2019-02-16T22:15:49.894Z,15.10
2019-02-16T22:18:19.052Z,16.10
2019-02-16T22:20:48.300Z,17.23
2019-02-16T22:23:17.954Z,20.07
2019-02-16T22:25:47.505Z,24.40
2019-02-16T22:28:20.478Z,25.10
2019-02-16T22:30:48.260Z,16.90
2019-02-16T22:33:18.193Z,21.07
2019-02-16T22:35:47.798Z,20.57
2019-02-16T22:38:17.362Z,19.63
2019-02-16T22:40:46.637Z,20.80
2019-02-16T22:43:16.254Z,18.53
2019-02-16T22:45:46.225Z,20.07
2019-02-16T22:48:16.263Z,19.13
2019-02-16T22:50:46.207Z,19.20
2019-02-16T22:53:15.909Z,16.57
2019-02-16T22:55:45.531Z,17.27
2019-02-16T22:58:15.113Z,14.23
2019-02-16T23:00:47.471Z,15.60
2019-02-16T23:03:17.246Z,18.53
2019-02-16T23:05:47.331Z,18.20
2019-02-16T23:08:16.911Z,15.67
2019-02-16T23:10:46.187Z,14.33
2019-02-16T23:13:15.784Z,17.97
2019-02-16T23:15:45.810Z,15.63
2019-02-16T23:18:15.800Z,16.80
2019-02-16T23:20:47.645Z,17.40
2019-02-16T23:23:17.075Z,15.43
2019-02-16T23:25:46.833Z,17.47
2019-02-16T23:28:16.618Z,20.07
2019-02-16T23:30:45.973Z,15.70
2019-02-16T23:33:15.919Z,19.60
2019-02-16T23:35:45.528Z,17.00
2019-02-16T23:38:15.463Z,15.30
2019-02-16T23:40:45.283Z,15.87
2019-02-16T23:43:15.636Z,18.60
2019-02-16T23:45:45.391Z,14.03
2019-02-16T23:48:15.322Z,16.37
2019-02-16T23:50:44.941Z,18.90
2019-02-16T23:53:14.641Z,22.73
2019-02-16T23:55:44.006Z,23.40
2019-02-16T23:58:13.686Z,26.60
